Time;durP1;ratioP1;P1;durP2;ratioP2;P2;SDS_P1;SDS_P2;PMS_P1;PMS_P2;Temp;Humidity;BMP_temperature;BMP_pressure;BME280_temperature;BME280_humidity;BME280_pressure;Samples;Min_cycle;Max_cycle;Signal;HPM_P1;HPM_P2
2022/11/26 00:02:16;;;;;;;43.80;21.40;;;;;;;8.14;100.00;101136.06;5080797;28;20496;-65
2022/11/26 00:04:43;;;;;;;38.17;20.70;;;;;;;8.11;100.00;101145.97;5083491;28;20452;-65
2022/11/26 00:07:11;;;;;;;54.17;23.80;;;;;;;8.15;100.00;101149.28;5100705;28;20499;-65
2022/11/26 00:09:37;;;;;;;46.20;22.37;;;;;;;8.17;100.00;101150.03;5084782;28;20466;-64
2022/11/26 00:12:14;;;;;;;42.90;22.27;;;;;;;8.26;100.00;101156.53;5091158;28;20478;-64
2022/11/26 00:14:41;;;;;;;57.37;23.63;;;;;;;8.23;100.00;101154.09;5102704;28;20996;-65
2022/11/26 00:17:11;;;;;;;51.30;24.23;;;;;;;8.20;100.00;101155.16;5099187;28;20502;-65
2022/11/26 00:19:38;;;;;;;49.07;24.27;;;;;;;8.20;100.00;101162.28;5088822;28;20441;-65
2022/11/26 00:22:05;;;;;;;49.53;22.63;;;;;;;8.03;100.00;101161.59;5088734;28;20482;-64
2022/11/26 00:24:32;;;;;;;54.37;21.50;;;;;;;8.13;100.00;101156.53;5097471;28;20475;-65
2022/11/26 00:26:59;;;;;;;49.83;21.73;;;;;;;8.09;100.00;101160.34;5086395;28;20504;-65
2022/11/26 00:29:26;;;;;;;46.70;21.43;;;;;;;8.07;100.00;101160.47;5085383;28;21201;-65
2022/11/26 00:31:53;;;;;;;47.90;22.17;;;;;;;8.00;100.00;101166.28;5100444;28;20666;-64
2022/11/26 00:34:21;;;;;;;44.07;21.67;;;;;;;8.00;100.00;101168.94;5100521;28;20467;-64
2022/11/26 00:36:48;;;;;;;42.53;23.30;;;;;;;8.02;100.00;101172.34;5100624;28;20475;-64
2022/11/26 00:39:18;;;;;;;36.53;21.43;;;;;;;7.97;100.00;101172.66;5096914;28;20443;-64
2022/11/26 00:41:48;;;;;;;46.90;21.43;;;;;;;7.89;100.00;101173.16;5100746;28;20494;-65
2022/11/26 00:44:17;;;;;;;55.27;21.80;;;;;;;7.89;100.00;101173.16;5096629;28;20479;-65
2022/11/26 00:46:44;;;;;;;45.00;21.33;;;;;;;7.92;100.00;101177.44;5100824;28;20476;-65
2022/11/26 00:49:11;;;;;;;49.80;21.10;;;;;;;7.81;100.00;101180.81;5086431;28;20464;-63
2022/11/26 00:51:39;;;;;;;45.23;20.47;;;;;;;7.80;100.00;101186.22;5080507;28;20503;-62
2022/11/26 00:54:06;;;;;;;44.23;21.40;;;;;;;7.88;100.00;101186.56;5080845;28;20472;-62
2022/11/26 00:56:33;;;;;;;40.83;20.40;;;;;;;7.83;100.00;101191.34;5079703;28;20511;-62
2022/11/26 00:59:00;;;;;;;44.40;20.60;;;;;;;7.73;100.00;101197.25;5089852;28;21390;-63
2022/11/26 01:01:27;;;;;;;43.03;21.60;;;;;;;7.78;100.00;101190.78;5080004;28;20464;-62
2022/11/26 01:03:54;;;;;;;44.80;21.50;;;;;;;7.90;100.00;101190.00;5088429;28;20452;-61
2022/11/26 01:06:25;;;;;;;42.27;21.27;;;;;;;7.76;100.00;101200.69;5101057;28;20536;-61
2022/11/26 01:08:53;;;;;;;40.37;20.40;;;;;;;7.84;100.00;101206.38;5089638;28;21122;-61
2022/11/26 01:11:22;;;;;;;44.63;22.10;;;;;;;7.78;100.00;101214.72;5100898;28;20498;-62
2022/11/26 01:13:51;;;;;;;39.60;20.20;;;;;;;7.68;100.00;101217.16;5096089;28;20539;-61
2022/11/26 01:16:21;;;;;;;40.47;22.40;;;;;;;7.64;100.00;101221.81;5101562;28;20567;-61
2022/11/26 01:18:49;;;;;;;39.17;22.03;;;;;;;7.70;100.00;101229.41;5101093;28;20447;-61
2022/11/26 01:21:16;;;;;;;42.27;22.33;;;;;;;7.65;100.00;101235.97;5087335;28;20492;-61
2022/11/26 01:23:43;;;;;;;45.30;21.87;;;;;;;7.63;100.00;101232.56;5081409;28;20448;-61
2022/11/26 01:26:18;;;;;;;43.73;21.70;;;;;;;7.56;100.00;101237.41;5081715;28;20504;-64
2022/11/26 01:28:45;;;;;;;41.27;21.53;;;;;;;7.53;100.00;101240.25;5061726;28;20549;-65
2022/11/26 01:31:20;;;;;;;39.80;19.97;;;;;;;7.54;100.00;101236.66;5073002;28;20532;-65
2022/11/26 01:33:47;;;;;;;42.30;21.87;;;;;;;7.48;100.00;101245.88;5070057;28;20476;-65
2022/11/26 01:36:27;;;;;;;40.23;23.57;;;;;;;7.51;100.00;101253.66;5085555;28;20499;-64
2022/11/26 01:38:54;;;;;;;48.67;23.37;;;;;;;7.56;100.00;101256.03;5101755;28;20464;-64
2022/11/26 01:41:34;;;;;;;43.13;22.13;;;;;;;7.49;100.00;101252.06;5090645;28;20548;-64
2022/11/26 01:44:01;;;;;;;43.03;21.90;;;;;;;7.41;100.00;101259.66;5092033;28;20497;-64
2022/11/26 01:46:30;;;;;;;48.67;23.30;;;;;;;7.52;100.00;101263.34;5100856;28;20505;-64
2022/11/26 01:49:15;;;;;;;44.97;22.00;;;;;;;7.42;100.00;101261.38;5082120;28;20472;-64
2022/11/26 01:51:42;;;;;;;49.03;22.60;;;;;;;7.41;100.00;101279.13;5087283;28;20510;-64
2022/11/26 01:54:09;;;;;;;38.63;22.10;;;;;;;7.62;100.00;101273.41;5100865;28;20482;-64
2022/11/26 01:56:39;;;;;;;44.70;22.50;;;;;;;7.42;100.00;101266.69;5068819;28;20596;-64
2022/11/26 01:59:10;;;;;;;46.93;22.77;;;;;;;7.35;100.00;101271.53;5076547;28;20476;-64
2022/11/26 02:01:36;;;;;;;51.20;22.63;;;;;;;7.25;100.00;101273.03;5080750;28;20472;-65
2022/11/26 02:04:12;;;;;;;42.90;22.30;;;;;;;7.28;100.00;101278.19;5096800;28;20479;-64
2022/11/26 02:06:39;;;;;;;47.73;24.77;;;;;;;7.20;100.00;101281.28;5096676;28;20521;-64
2022/11/26 02:09:08;;;;;;;47.13;23.17;;;;;;;7.25;100.00;101283.69;5103568;28;20455;-65
2022/11/26 02:11:34;;;;;;;48.23;23.70;;;;;;;7.36;100.00;101286.56;5102006;28;20495;-65
2022/11/26 02:14:05;;;;;;;50.40;25.20;;;;;;;7.40;100.00;101288.06;5085253;28;20452;-65
2022/11/26 02:16:49;;;;;;;50.43;24.47;;;;;;;7.47;100.00;101276.09;5084567;28;21027;-64
2022/11/26 02:19:49;;;;;;;46.20;22.23;;;;;;;7.45;100.00;101278.00;5088120;28;20467;-65
2022/11/26 02:22:33;;;;;;;50.30;22.27;;;;;;;7.43;100.00;101282.56;5094885;28;21118;-65
2022/11/26 02:25:07;;;;;;;43.57;22.43;;;;;;;7.41;100.00;101286.25;5091070;28;20483;-64
2022/11/26 02:27:55;;;;;;;52.80;24.13;;;;;;;7.37;100.00;101287.41;5067498;28;20477;-64
2022/11/26 02:30:23;;;;;;;43.40;22.60;;;;;;;7.33;100.00;101295.56;5064095;28;20507;-64
2022/11/26 02:32:56;;;;;;;40.07;22.00;;;;;;;7.45;100.00;101296.63;5076306;28;20448;-64
2022/11/26 02:35:26;;;;;;;43.67;22.37;;;;;;;7.37;100.00;101304.22;5084354;28;20485;-64
2022/11/26 02:37:56;;;;;;;48.60;22.13;;;;;;;7.34;100.00;101307.94;5086005;28;20487;-64
2022/11/26 02:40:23;;;;;;;46.83;23.70;;;;;;;7.30;100.00;101308.19;5104048;28;20474;-64
2022/11/26 02:42:50;;;;;;;46.10;22.97;;;;;;;7.31;100.00;101309.94;5103097;28;20546;-64
2022/11/26 02:45:18;;;;;;;46.97;23.57;;;;;;;7.29;100.00;101310.03;5090578;28;20642;-64
2022/11/26 02:47:49;;;;;;;49.57;22.00;;;;;;;7.20;100.00;101299.06;5083305;28;20472;-64
2022/11/26 02:50:20;;;;;;;48.90;24.57;;;;;;;7.14;100.00;101306.47;5084734;28;20515;-64
2022/11/26 02:52:48;;;;;;;42.67;21.77;;;;;;;7.27;100.00;101314.56;5083832;28;20468;-64
2022/11/26 02:55:18;;;;;;;52.67;24.03;;;;;;;7.18;100.00;101308.94;5097907;28;20479;-64
2022/11/26 02:57:47;;;;;;;42.47;22.77;;;;;;;7.19;100.00;101310.63;5103931;28;20464;-65
2022/11/26 03:00:15;;;;;;;46.83;23.67;;;;;;;7.12;100.00;101313.69;5098973;28;20463;-65
2022/11/26 03:02:46;;;;;;;46.27;22.23;;;;;;;7.15;100.00;101318.84;5084069;28;20444;-63
2022/11/26 03:05:14;;;;;;;43.97;22.20;;;;;;;7.23;100.00;101322.81;5083248;28;20515;-64
2022/11/26 03:07:41;;;;;;;39.37;20.97;;;;;;;7.20;100.00;101323.00;5085322;28;20540;-63
2022/11/26 03:10:08;;;;;;;46.47;21.37;;;;;;;7.24;100.00;101320.09;5103583;28;20484;-63
2022/11/26 03:12:34;;;;;;;51.10;23.27;;;;;;;7.20;100.00;101323.84;5102091;28;20512;-64
2022/11/26 03:15:01;;;;;;;52.30;23.60;;;;;;;6.97;100.00;101318.09;5083401;28;20463;-64
2022/11/26 03:17:28;;;;;;;47.00;22.27;;;;;;;6.98;100.00;101327.81;5087428;28;20486;-63
2022/11/26 03:19:56;;;;;;;43.20;21.77;;;;;;;7.09;100.00;101321.00;5102689;28;20475;-64
2022/11/26 03:22:22;;;;;;;43.37;19.10;;;;;;;7.19;100.00;101326.59;5102463;28;20500;-65
2022/11/26 03:24:49;;;;;;;44.60;23.73;;;;;;;7.03;100.00;101329.31;5100676;28;20522;-64
2022/11/26 03:27:16;;;;;;;42.27;21.20;;;;;;;6.95;100.00;101333.31;5103423;28;20551;-65
2022/11/26 03:29:42;;;;;;;41.97;21.50;;;;;;;7.15;100.00;101326.81;5103995;28;20542;-65
2022/11/26 03:32:09;;;;;;;40.93;21.00;;;;;;;7.01;100.00;101328.56;5085508;28;20531;-65
2022/11/26 03:34:35;;;;;;;47.50;20.17;;;;;;;7.07;100.00;101334.38;5093722;28;20463;-65
2022/11/26 03:37:03;;;;;;;43.43;21.13;;;;;;;7.16;100.00;101320.53;5098814;28;20555;-65
2022/11/26 03:39:30;;;;;;;49.33;22.10;;;;;;;7.12;100.00;101319.00;5099739;28;20507;-65
2022/11/26 03:41:57;;;;;;;48.00;22.40;;;;;;;7.10;100.00;101320.91;5083228;28;20499;-65
2022/11/26 03:44:23;;;;;;;44.33;21.40;;;;;;;7.04;100.00;101315.09;5083246;28;21074;-65
2022/11/26 03:46:50;;;;;;;43.60;23.17;;;;;;;7.12;100.00;101313.69;5082100;28;20540;-64
2022/11/26 03:49:17;;;;;;;44.47;23.23;;;;;;;7.02;100.00;101322.31;5082768;28;20464;-64
2022/11/26 03:51:44;;;;;;;44.73;23.87;;;;;;;6.98;100.00;101324.31;5092801;28;20506;-65
2022/11/26 03:54:12;;;;;;;50.97;23.67;;;;;;;7.13;100.00;101319.84;5082625;28;20484;-64
2022/11/26 03:56:38;;;;;;;53.67;24.00;;;;;;;7.13;100.00;101319.84;5082680;28;21225;-64
2022/11/26 03:59:05;;;;;;;39.70;22.67;;;;;;;7.15;100.00;101312.63;5082720;28;20467;-64
2022/11/26 04:01:31;;;;;;;43.97;22.60;;;;;;;7.06;100.00;101314.03;5082516;28;20544;-65
2022/11/26 04:03:58;;;;;;;49.87;23.67;;;;;;;7.13;100.00;101318.06;5082805;28;20562;-64
2022/11/26 04:06:25;;;;;;;47.07;24.03;;;;;;;7.10;100.00;101317.38;5099368;28;20530;-64
2022/11/26 04:08:51;;;;;;;53.17;26.77;;;;;;;7.07;100.00;101322.91;5102731;28;20481;-64
2022/11/26 04:11:19;;;;;;;46.43;23.30;;;;;;;7.10;100.00;101323.56;5096609;28;20552;-64
2022/11/26 04:13:46;;;;;;;46.97;22.80;;;;;;;7.10;100.00;101328.00;5082573;28;20476;-65
2022/11/26 04:16:12;;;;;;;43.77;22.33;;;;;;;7.14;100.00;101327.75;5098040;28;20484;-65
2022/11/26 04:18:39;;;;;;;49.00;23.10;;;;;;;7.06;100.00;101326.50;5092535;28;20445;-64
2022/11/26 04:21:06;;;;;;;42.97;21.50;;;;;;;6.97;100.00;101328.75;5102073;28;20487;-64
2022/11/26 04:23:33;;;;;;;48.83;23.77;;;;;;;7.04;100.00;101339.03;5101649;28;20450;-64
2022/11/26 04:26:00;;;;;;;53.00;23.13;;;;;;;7.04;100.00;101336.38;5102345;28;20487;-65
2022/11/26 04:28:28;;;;;;;47.70;25.17;;;;;;;6.91;100.00;101339.75;5101832;28;20444;-65
2022/11/26 04:30:55;;;;;;;62.47;25.83;;;;;;;6.95;100.00;101346.59;5083757;28;20591;-65
2022/11/26 04:33:21;;;;;;;46.30;23.77;;;;;;;6.97;100.00;101350.00;5082226;28;20523;-65
2022/11/26 04:35:48;;;;;;;52.67;25.00;;;;;;;7.00;100.00;101345.50;5085204;28;20488;-65
2022/11/26 04:38:14;;;;;;;51.40;22.50;;;;;;;7.02;100.00;101355.06;5101729;28;20515;-65
2022/11/26 04:40:41;;;;;;;53.97;23.97;;;;;;;7.04;100.00;101355.81;5082037;28;21232;-65
2022/11/26 04:43:07;;;;;;;55.43;25.10;;;;;;;7.01;100.00;101366.63;5082301;28;20520;-64
2022/11/26 04:45:35;;;;;;;53.93;25.83;;;;;;;7.08;100.00;101370.69;5101488;28;20582;-65
2022/11/26 04:48:02;;;;;;;59.70;25.63;;;;;;;7.02;100.00;101371.03;5101624;28;20491;-64
2022/11/26 04:50:28;;;;;;;53.07;26.63;;;;;;;6.95;100.00;101367.00;5093761;28;20507;-64
2022/11/26 04:52:55;;;;;;;49.43;27.17;;;;;;;6.99;100.00;101381.84;5095729;28;21040;-64
2022/11/26 04:55:22;;;;;;;55.93;26.53;;;;;;;7.01;100.00;101384.41;5098818;28;20504;-64
2022/11/26 04:57:48;;;;;;;56.93;27.10;;;;;;;7.12;100.00;101384.66;5101989;28;20435;-64
2022/11/26 05:00:16;;;;;;;56.13;25.13;;;;;;;7.17;100.00;101385.22;5077124;28;20528;-65
2022/11/26 05:02:44;;;;;;;51.13;25.80;;;;;;;7.19;100.00;101390.44;5075366;28;20448;-65
2022/11/26 05:05:11;;;;;;;53.83;26.60;;;;;;;7.12;100.00;101390.81;5101372;28;20503;-64
2022/11/26 05:07:38;;;;;;;64.73;27.07;;;;;;;7.24;100.00;101394.56;5094962;28;20518;-64
2022/11/26 05:10:07;;;;;;;57.23;28.33;;;;;;;7.15;100.00;101393.28;5094469;28;20444;-64
2022/11/26 05:12:34;;;;;;;58.17;28.10;;;;;;;7.08;100.00;101407.03;5070849;28;20527;-63
2022/11/26 05:15:00;;;;;;;65.87;28.80;;;;;;;7.09;100.00;101404.28;5090011;28;20483;-63
2022/11/26 05:17:27;;;;;;;62.07;26.30;;;;;;;7.08;100.00;101405.25;5100502;28;20494;-64
2022/11/26 05:19:55;;;;;;;55.87;30.00;;;;;;;7.09;100.00;101414.06;5096556;28;20476;-63
2022/11/26 05:22:21;;;;;;;63.63;30.23;;;;;;;7.16;100.00;101408.28;5085027;28;20574;-63
2022/11/26 05:24:48;;;;;;;66.17;29.47;;;;;;;6.98;100.00;101410.22;5082882;28;21237;-63
2022/11/26 05:27:14;;;;;;;61.63;31.00;;;;;;;7.11;100.00;101409.50;5083416;28;20540;-63
2022/11/26 05:29:41;;;;;;;59.23;30.93;;;;;;;6.88;100.00;101409.03;5081729;28;20491;-63
2022/11/26 05:32:08;;;;;;;62.07;29.87;;;;;;;6.93;100.00;101424.75;5095049;28;21205;-63
2022/11/26 05:34:34;;;;;;;63.77;29.97;;;;;;;6.95;100.00;101423.69;5100869;28;20482;-64
2022/11/26 05:37:02;;;;;;;63.70;30.63;;;;;;;6.85;100.00;101430.47;5100046;28;20499;-64
2022/11/26 05:39:29;;;;;;;68.23;30.17;;;;;;;6.84;100.00;101433.22;5078673;28;20508;-64
2022/11/26 05:41:55;;;;;;;54.47;28.97;;;;;;;6.69;100.00;101434.97;5084465;28;20554;-64
2022/11/26 05:44:22;;;;;;;56.87;29.73;;;;;;;6.81;100.00;101442.25;5100870;28;20528;-64
2022/11/26 05:46:49;;;;;;;70.63;32.23;;;;;;;6.83;100.00;101442.16;5082742;28;20484;-64
2022/11/26 05:49:15;;;;;;;70.40;32.43;;;;;;;6.87;100.00;101441.03;5089047;28;20486;-64
2022/11/26 05:51:42;;;;;;;80.57;33.20;;;;;;;6.78;100.00;101445.91;5100374;28;21067;-65
2022/11/26 05:54:12;;;;;;;74.03;33.07;;;;;;;6.85;100.00;101437.59;5087496;28;20475;-63
2022/11/26 05:56:38;;;;;;;71.07;30.07;;;;;;;6.90;100.00;101446.19;5080726;28;20528;-63
2022/11/26 05:59:05;;;;;;;62.53;31.57;;;;;;;6.93;100.00;101448.66;5082480;28;20451;-64
2022/11/26 06:01:32;;;;;;;69.93;34.10;;;;;;;6.87;100.00;101441.88;5080375;28;20587;-63
2022/11/26 06:03:58;;;;;;;76.83;33.30;;;;;;;6.90;100.00;101448.84;5080866;28;20452;-64
2022/11/26 06:06:25;;;;;;;73.00;34.10;;;;;;;6.89;100.00;101450.66;5084031;28;20511;-63
2022/11/26 06:08:51;;;;;;;77.93;34.37;;;;;;;6.87;100.00;101457.81;5091851;28;20619;-64
2022/11/26 06:11:19;;;;;;;81.63;34.50;;;;;;;6.91;100.00;101466.47;5087376;28;20514;-64
2022/11/26 06:13:46;;;;;;;74.90;33.17;;;;;;;6.87;100.00;101462.28;5080053;28;20479;-64
2022/11/26 06:16:12;;;;;;;75.93;34.53;;;;;;;6.94;100.00;101463.66;5094664;28;20495;-64
2022/11/26 06:18:39;;;;;;;93.63;38.30;;;;;;;6.94;100.00;101463.66;5091023;28;20504;-64
2022/11/26 06:21:07;;;;;;;79.70;36.70;;;;;;;6.94;100.00;101469.84;5088202;28;20524;-64
2022/11/26 06:23:34;;;;;;;79.23;36.03;;;;;;;7.03;100.00;101473.78;5080180;28;20487;-64
2022/11/26 06:26:01;;;;;;;89.87;37.47;;;;;;;6.95;100.00;101468.88;5093348;28;21111;-64
2022/11/26 06:28:29;;;;;;;90.17;37.07;;;;;;;6.87;100.00;101467.63;5099889;28;20565;-65
2022/11/26 06:30:55;;;;;;;97.50;37.00;;;;;;;6.99;100.00;101477.53;5097898;28;20521;-64
2022/11/26 06:33:22;;;;;;;89.50;38.57;;;;;;;6.98;100.00;101475.84;5095614;28;21000;-64
2022/11/26 06:35:48;;;;;;;95.27;39.00;;;;;;;6.94;100.00;101482.28;5080810;28;20495;-66
2022/11/26 06:38:15;;;;;;;93.03;39.90;;;;;;;6.95;100.00;101486.66;5080048;28;20535;-65
2022/11/26 06:40:42;;;;;;;82.97;37.37;;;;;;;6.89;100.00;101484.31;5077153;28;20539;-65
2022/11/26 06:43:08;;;;;;;96.83;38.63;;;;;;;6.94;100.00;101500.88;5088890;28;20486;-65
2022/11/26 06:45:36;;;;;;;103.70;39.40;;;;;;;6.90;100.00;101502.84;5098327;28;20509;-64
2022/11/26 06:48:03;;;;;;;100.00;41.97;;;;;;;7.01;100.00;101501.41;5079926;28;20506;-64
2022/11/26 06:50:30;;;;;;;101.13;42.30;;;;;;;7.03;100.00;101507.47;5092160;28;20467;-64
2022/11/26 06:52:56;;;;;;;87.80;39.60;;;;;;;7.02;100.00;101509.28;5098610;28;20534;-65
2022/11/26 06:55:23;;;;;;;90.93;42.27;;;;;;;7.01;100.00;101507.56;5096137;28;20443;-65
2022/11/26 06:57:50;;;;;;;109.53;43.47;;;;;;;7.01;100.00;101501.41;5101729;28;20455;-65
2022/11/26 07:00:17;;;;;;;110.27;42.87;;;;;;;6.92;100.00;101508.94;5086513;28;20462;-64
2022/11/26 07:02:45;;;;;;;98.13;44.17;;;;;;;7.07;100.00;101511.69;5101374;28;20450;-66
2022/11/26 07:05:12;;;;;;;108.87;43.97;;;;;;;7.03;100.00;101513.69;5092704;28;20964;-68
2022/11/26 07:07:39;;;;;;;105.70;42.97;;;;;;;7.05;100.00;101513.56;5090111;28;20952;-69
2022/11/26 07:10:07;;;;;;;118.37;43.60;;;;;;;7.10;100.00;101514.16;5083856;28;20455;-66
2022/11/26 07:12:33;;;;;;;108.60;40.70;;;;;;;7.09;100.00;101508.00;5083719;28;20486;-66
2022/11/26 07:15:00;;;;;;;99.20;44.57;;;;;;;7.12;100.00;101509.63;5084568;28;20861;-66
2022/11/26 07:17:27;;;;;;;115.27;42.27;;;;;;;7.11;100.00;101513.22;5100389;28;20475;-66
2022/11/26 07:19:55;;;;;;;108.83;42.30;;;;;;;7.12;100.00;101528.25;5101931;28;20530;-66
2022/11/26 07:22:22;;;;;;;91.90;39.63;;;;;;;7.23;100.00;101532.97;5099767;28;20503;-65
2022/11/26 07:24:49;;;;;;;93.07;39.10;;;;;;;7.10;100.00;101524.78;5083573;28;20852;-66
2022/11/26 07:27:15;;;;;;;107.00;39.87;;;;;;;7.19;100.00;101534.06;5087128;28;21071;-65
2022/11/26 07:29:42;;;;;;;101.63;40.83;;;;;;;7.17;100.00;101531.50;5094649;28;20483;-69
2022/11/26 07:32:08;;;;;;;91.87;41.27;;;;;;;7.12;100.00;101536.22;5088437;28;20550;-69
2022/11/26 07:34:35;;;;;;;100.57;40.47;;;;;;;7.05;100.00;101538.38;5082466;28;20452;-69
2022/11/26 07:37:03;;;;;;;100.40;38.60;;;;;;;7.17;100.00;101544.81;5081526;28;20496;-69
2022/11/26 07:39:30;;;;;;;101.00;38.80;;;;;;;7.16;100.00;101538.59;5082799;28;20445;-68
2022/11/26 07:41:57;;;;;;;95.23;39.23;;;;;;;7.15;100.00;101538.69;5082161;28;20507;-69
2022/11/26 07:44:23;;;;;;;107.20;40.33;;;;;;;7.16;100.00;101543.06;5094884;28;20487;-70
2022/11/26 07:46:50;;;;;;;101.43;39.23;;;;;;;7.05;100.00;101549.00;5077677;28;20508;-69
2022/11/26 07:49:16;;;;;;;89.53;38.13;;;;;;;7.03;100.00;101544.69;5085230;28;21261;-70
2022/11/26 07:51:43;;;;;;;95.93;39.00;;;;;;;7.18;100.00;101548.31;5082155;28;20495;-69
2022/11/26 07:54:11;;;;;;;83.90;37.90;;;;;;;7.19;100.00;101544.69;5092769;28;20480;-69
2022/11/26 07:56:38;;;;;;;92.43;39.70;;;;;;;7.03;100.00;101545.59;5097075;28;20484;-68
2022/11/26 07:59:04;;;;;;;96.40;40.47;;;;;;;7.11;100.00;101548.66;5078874;28;20459;-68
2022/11/26 08:01:31;;;;;;;79.37;37.33;;;;;;;7.24;100.00;101543.50;5091263;28;20472;-69
2022/11/26 08:03:59;;;;;;;89.27;40.33;;;;;;;7.19;100.00;101550.00;5082339;28;20992;-69
2022/11/26 08:06:28;;;;;;;85.70;37.67;;;;;;;7.25;100.00;101544.34;5063860;28;20477;-68
2022/11/26 08:08:55;;;;;;;108.50;42.30;;;;;;;7.31;100.00;101549.34;5082410;28;20473;-69
2022/11/26 08:11:24;;;;;;;80.80;37.73;;;;;;;7.37;100.00;101550.78;5091505;28;20542;-69
2022/11/26 08:13:53;;;;;;;86.97;37.80;;;;;;;7.48;100.00;101551.88;5102756;28;20478;-68
2022/11/26 08:16:19;;;;;;;87.70;39.17;;;;;;;7.66;100.00;101549.09;5099854;28;20495;-68
2022/11/26 08:18:46;;;;;;;85.67;38.57;;;;;;;7.68;100.00;101549.88;5086667;28;20435;-68
2022/11/26 08:21:12;;;;;;;75.97;36.00;;;;;;;7.54;100.00;101554.19;5100123;28;20483;-68
2022/11/26 08:23:39;;;;;;;77.97;37.03;;;;;;;7.52;100.00;101553.41;5095261;28;20492;-68
2022/11/26 08:26:07;;;;;;;89.47;36.37;;;;;;;7.62;100.00;101561.75;5076205;28;20996;-68
2022/11/26 08:28:35;;;;;;;74.23;32.97;;;;;;;7.53;100.00;101573.78;5072598;28;20511;-68
2022/11/26 08:31:02;;;;;;;75.90;33.70;;;;;;;7.54;100.00;101572.81;5067989;28;20485;-68
2022/11/26 08:33:29;;;;;;;72.23;34.97;;;;;;;7.50;100.00;101575.75;5094669;28;20882;-68
2022/11/26 08:35:55;;;;;;;73.87;34.97;;;;;;;7.40;100.00;101580.75;5099096;28;20495;-68
2022/11/26 08:38:22;;;;;;;67.07;33.57;;;;;;;7.58;100.00;101583.28;5077018;28;20587;-68
2022/11/26 08:40:49;;;;;;;63.23;33.17;;;;;;;7.56;100.00;101582.53;5100710;28;20885;-68
2022/11/26 08:43:16;;;;;;;75.97;36.40;;;;;;;7.56;100.00;101578.03;5098504;28;21184;-68
2022/11/26 08:45:44;;;;;;;65.90;32.60;;;;;;;7.53;100.00;101568.44;5084118;28;20474;-68
2022/11/26 08:48:12;;;;;;;77.73;36.03;;;;;;;7.64;100.00;101585.59;5099949;28;20551;-67
2022/11/26 08:50:38;;;;;;;72.17;34.23;;;;;;;7.71;100.00;101577.16;5100889;28;20475;-68
2022/11/26 08:53:05;;;;;;;70.40;35.03;;;;;;;7.51;100.00;101578.31;5096531;28;20452;-68
2022/11/26 08:55:32;;;;;;;76.40;36.73;;;;;;;7.58;100.00;101578.81;5080030;28;20496;-69
2022/11/26 08:57:58;;;;;;;86.37;36.73;;;;;;;7.53;100.00;101575.56;5092891;28;20467;-68
2022/11/26 09:00:25;;;;;;;65.10;35.00;;;;;;;7.57;100.00;101577.13;5088040;28;20505;-68
2022/11/26 09:02:53;;;;;;;71.47;35.17;;;;;;;7.91;99.55;101583.97;5092943;28;20520;-68
2022/11/26 09:05:19;;;;;;;65.73;33.80;;;;;;;8.20;98.97;101581.38;5087109;28;20433;-68
2022/11/26 09:07:46;;;;;;;67.20;37.03;;;;;;;8.21;97.06;101580.44;5085722;28;20520;-68
2022/11/26 09:10:13;;;;;;;72.23;34.70;;;;;;;8.39;96.19;101585.59;5083444;28;20507;-68
2022/11/26 09:12:41;;;;;;;60.83;31.83;;;;;;;8.41;95.49;101587.22;5074893;28;20460;-69
2022/11/26 09:15:09;;;;;;;66.00;31.77;;;;;;;8.42;95.12;101588.97;5093066;28;20443;-68
2022/11/26 09:17:36;;;;;;;61.13;31.03;;;;;;;8.79;94.82;101592.00;5092549;28;20501;-69
2022/11/26 09:20:04;;;;;;;54.67;29.70;;;;;;;8.48;93.78;101593.06;5080673;28;20479;-70
2022/11/26 09:22:31;;;;;;;49.30;28.93;;;;;;;8.43;94.28;101597.81;5098554;28;20495;-70
2022/11/26 09:24:57;;;;;;;44.63;26.43;;;;;;;8.20;94.91;101604.50;5092197;28;20802;-71
2022/11/26 09:27:26;;;;;;;42.20;24.87;;;;;;;8.30;95.32;101603.00;5079238;28;21148;-70
2022/11/26 09:29:53;;;;;;;41.00;25.10;;;;;;;8.35;95.06;101614.25;5082949;28;20487;-69
2022/11/26 09:32:19;;;;;;;40.37;23.53;;;;;;;8.66;94.66;101615.94;5099162;28;20517;-69
2022/11/26 09:34:46;;;;;;;42.80;24.53;;;;;;;8.33;94.52;101618.78;5084867;28;20453;-68
2022/11/26 09:37:14;;;;;;;37.50;22.90;;;;;;;8.47;95.46;101607.31;5078023;28;20523;-70
2022/11/26 09:39:40;;;;;;;40.60;23.93;;;;;;;8.78;93.41;101624.97;5080361;28;20444;-70
2022/11/26 09:42:09;;;;;;;44.60;23.83;;;;;;;9.08;92.25;101620.47;5079002;28;20571;-70
2022/11/26 09:44:52;;;;;;;35.17;22.07;;;;;;;9.06;90.75;101625.91;5093431;28;20452;-71
2022/11/26 09:47:21;;;;;;;33.40;22.60;;;;;;;9.09;91.17;101623.03;5065960;28;20485;-70
2022/11/26 09:49:55;;;;;;;34.20;22.53;;;;;;;9.27;89.92;101625.50;5091449;28;20484;-70
2022/11/26 09:52:26;;;;;;;29.53;18.13;;;;;;;9.21;89.62;101624.06;5084217;28;20491;-66
2022/11/26 09:55:02;;;;;;;36.20;20.40;;;;;;;9.50;88.55;101629.38;5092103;28;20506;-67
2022/11/26 09:57:35;;;;;;;31.50;18.57;;;;;;;10.03;86.19;101624.94;5095777;28;20484;-67
2022/11/26 10:00:03;;;;;;;37.27;18.63;;;;;;;9.88;84.59;101612.63;5091186;28;20467;-67
2022/11/26 10:02:30;;;;;;;33.53;18.67;;;;;;;9.94;84.25;101615.72;5091104;28;20503;-67
2022/11/26 10:04:56;;;;;;;22.67;15.27;;;;;;;9.98;83.97;101616.38;5096510;28;20530;-67
2022/11/26 10:07:44;;;;;;;28.10;15.60;;;;;;;9.99;84.59;101615.44;5093619;28;20519;-67
2022/11/26 10:10:13;;;;;;;29.20;16.43;;;;;;;11.20;78.15;101613.31;5056967;28;20942;-67
2022/11/26 10:12:49;;;;;;;29.63;15.80;;;;;;;11.50;75.64;101605.69;5068512;28;20455;-68
2022/11/26 10:15:17;;;;;;;26.77;15.30;;;;;;;10.93;78.01;101607.13;5080037;28;20432;-67
2022/11/26 10:17:53;;;;;;;28.43;15.87;;;;;;;11.37;76.44;101615.63;5079105;28;20476;-67
2022/11/26 10:20:45;;;;;;;23.00;12.90;;;;;;;11.98;73.80;101620.94;5080189;28;20500;-67
2022/11/26 10:23:20;;;;;;;24.03;12.20;;;;;;;12.49;72.24;101613.53;5078652;28;20452;-68
2022/11/26 10:25:50;;;;;;;21.27;12.37;;;;;;;13.03;70.71;101612.81;5079268;28;20494;-68
2022/11/26 10:28:20;;;;;;;22.50;13.60;;;;;;;13.75;67.03;101624.91;5081467;28;20514;-68
2022/11/26 10:30:51;;;;;;;19.80;13.37;;;;;;;13.30;67.53;101622.31;5083029;28;20539;-68
2022/11/26 10:33:18;;;;;;;19.07;12.43;;;;;;;12.27;70.68;101625.06;5082936;28;20480;-68
2022/11/26 10:35:45;;;;;;;20.47;13.23;;;;;;;11.49;74.54;101624.56;5082724;28;20480;-68
2022/11/26 10:38:12;;;;;;;24.07;13.40;;;;;;;11.33;76.31;101619.47;5083057;28;20459;-68
2022/11/26 10:40:40;;;;;;;23.17;13.43;;;;;;;11.23;77.20;101627.34;5079999;28;20472;-68
2022/11/26 10:43:13;;;;;;;24.93;12.70;;;;;;;11.00;77.73;101622.78;5082436;28;20475;-68
2022/11/26 10:45:41;;;;;;;20.97;12.73;;;;;;;10.48;78.93;101636.16;5082648;28;20487;-68
2022/11/26 10:48:16;;;;;;;23.90;13.40;;;;;;;10.25;81.18;101628.84;5093160;28;20480;-67
2022/11/26 10:50:45;;;;;;;25.50;14.00;;;;;;;9.73;83.75;101631.38;5101925;28;20470;-68
2022/11/26 10:53:20;;;;;;;27.33;14.30;;;;;;;9.75;84.70;101636.63;5103286;28;20450;-68
2022/11/26 10:55:48;;;;;;;26.33;13.17;;;;;;;9.59;85.32;101626.94;5098377;28;20477;-67
2022/11/26 10:58:16;;;;;;;28.60;15.10;;;;;;;9.85;83.99;101635.06;5098367;28;20449;-68
2022/11/26 11:00:46;;;;;;;27.33;16.37;;;;;;;9.66;85.63;101638.06;5092206;28;20472;-68
2022/11/26 11:03:16;;;;;;;31.23;15.17;;;;;;;9.81;85.09;101633.56;5082038;28;20516;-67
2022/11/26 11:05:44;;;;;;;30.47;16.50;;;;;;;9.52;85.51;101628.28;5093132;28;20507;-67
2022/11/26 11:08:13;;;;;;;29.00;15.17;;;;;;;9.70;85.59;101628.03;5091566;28;20459;-68
2022/11/26 11:10:54;;;;;;;28.03;16.20;;;;;;;9.81;85.69;101633.56;5095795;28;21118;-68
2022/11/26 11:13:20;;;;;;;26.50;15.40;;;;;;;9.83;85.74;101631.63;5082345;28;20472;-68
2022/11/26 11:15:47;;;;;;;31.77;15.87;;;;;;;10.79;82.22;101620.66;5080384;28;20480;-67